Time;durP1;ratioP1;P1;durP2;ratioP2;P2;SDS_P1;SDS_P2;PMS_P1;PMS_P2;Temp;Humidity;BMP_temperature;BMP_pressure;BME280_temperature;BME280_humidity;BME280_pressure;Samples;Min_cycle;Max_cycle;Signal;HPM_P1;HPM_P2
2022/12/25 00:01:11;;;;;;;8.10;7.80;;;10.50;51.90;;;;;;5011458;28;20499;-75
2022/12/25 00:03:37;;;;;;;8.33;8.00;;;10.50;50.80;;;;;;5011477;28;20177;-75
2022/12/25 00:06:03;;;;;;;7.80;7.40;;;10.60;51.10;;;;;;5029259;28;20165;-75
2022/12/25 00:08:29;;;;;;;7.53;7.23;;;10.60;50.40;;;;;;5028167;28;20454;-75
2022/12/25 00:10:59;;;;;;;8.60;8.20;;;10.60;50.60;;;;;;5011276;28;20552;-75
2022/12/25 00:13:25;;;;;;;7.80;7.40;;;10.70;50.40;;;;;;5028748;28;20510;-75
2022/12/25 00:15:50;;;;;;;7.57;7.17;;;10.60;50.30;;;;;;5028720;28;20857;-76
2022/12/25 00:18:16;;;;;;;9.10;8.40;;;10.70;50.10;;;;;;5028444;28;20203;-75
2022/12/25 00:20:41;;;;;;;8.43;7.93;;;10.80;50.50;;;;;;5028345;28;20516;-75
2022/12/25 00:23:07;;;;;;;7.80;7.40;;;11.00;50.20;;;;;;5028414;28;20257;-74
2022/12/25 00:25:32;;;;;;;8.67;8.23;;;11.20;49.90;;;;;;5029677;28;20658;-75
2022/12/25 00:27:58;;;;;;;8.40;8.00;;;11.30;48.30;;;;;;5011000;28;20180;-74
2022/12/25 00:30:23;;;;;;;9.17;8.77;;;11.20;47.30;;;;;;5028350;28;20204;-75
2022/12/25 00:32:49;;;;;;;8.07;7.77;;;11.20;48.00;;;;;;5010447;28;20181;-75
2022/12/25 00:35:14;;;;;;;8.87;8.30;;;11.30;48.60;;;;;;5028081;28;20199;-74
2022/12/25 00:37:40;;;;;;;8.73;8.23;;;11.40;46.80;;;;;;5028635;28;20574;-74
2022/12/25 00:40:06;;;;;;;8.30;8.00;;;11.40;46.70;;;;;;5028429;28;20192;-74
2022/12/25 00:42:32;;;;;;;8.80;8.50;;;11.50;46.40;;;;;;5028038;28;20173;-75
2022/12/25 00:44:57;;;;;;;9.40;9.00;;;11.50;45.50;;;;;;5028235;28;20418;-74
2022/12/25 00:47:23;;;;;;;8.87;8.50;;;11.50;45.80;;;;;;5029346;28;20172;-74
2022/12/25 00:49:48;;;;;;;8.70;8.40;;;11.50;45.70;;;;;;5010656;28;20261;-75
2022/12/25 00:52:14;;;;;;;8.40;8.10;;;11.50;46.30;;;;;;5028237;28;20537;-75
2022/12/25 00:54:39;;;;;;;9.90;9.40;;;11.50;45.50;;;;;;5028173;28;20176;-75
2022/12/25 00:57:05;;;;;;;8.57;8.27;;;11.20;46.10;;;;;;5027509;28;20183;-75
2022/12/25 00:59:32;;;;;;;9.47;9.03;;;11.10;47.40;;;;;;5028052;28;20192;-75
2022/12/25 01:02:22;;;;;;;9.40;8.73;;;11.10;47.70;;;;;;5010716;28;20191;-75
2022/12/25 01:04:43;;;;;;;9.00;8.60;;;11.10;47.70;;;;;;5029000;28;20415;-74
2022/12/25 01:07:09;;;;;;;8.80;8.40;;;11.30;46.60;;;;;;5028951;28;20415;-75
2022/12/25 01:12:18;;;;;;;9.33;8.70;;;11.10;47.20;;;;;;5028115;28;20654;-75
2022/12/25 01:14:44;;;;;;;9.10;8.70;;;11.20;47.50;;;;;;5027282;28;20415;-76
2022/12/25 01:17:09;;;;;;;8.43;8.17;;;11.20;47.70;;;;;;5028027;28;20699;-75
2022/12/25 01:19:35;;;;;;;8.50;8.20;;;11.20;46.50;;;;;;5029975;28;20644;-75
2022/12/25 01:22:00;;;;;;;8.77;8.47;;;11.20;46.70;;;;;;5030619;28;20581;-75
2022/12/25 01:24:26;;;;;;;8.87;8.47;;;11.30;46.80;;;;;;5031876;28;20177;-75
2022/12/25 01:26:53;;;;;;;8.00;7.70;;;11.40;46.80;;;;;;5031827;28;20180;-74
2022/12/25 01:29:18;;;;;;;9.10;8.60;;;11.60;46.80;;;;;;5031222;28;20211;-75
2022/12/25 01:31:44;;;;;;;8.27;7.87;;;11.70;46.20;;;;;;5031984;28;20407;-75
2022/12/25 01:34:09;;;;;;;8.00;7.70;;;11.90;45.70;;;;;;5031298;28;20169;-75
2022/12/25 01:36:35;;;;;;;8.63;8.33;;;12.00;44.90;;;;;;5031411;28;20251;-75
2022/12/25 01:39:00;;;;;;;7.73;7.53;;;12.10;44.30;;;;;;5030924;28;20200;-75
2022/12/25 01:41:26;;;;;;;9.50;9.07;;;12.20;43.50;;;;;;5031458;28;20311;-75
2022/12/25 01:44:06;;;;;;;8.93;8.33;;;12.30;43.60;;;;;;5030983;28;20263;-74
2022/12/25 01:46:32;;;;;;;8.33;8.03;;;12.30;43.10;;;;;;5031566;28;20176;-75
2022/12/25 01:49:16;;;;;;;9.27;8.83;;;12.30;42.40;;;;;;5030924;28;20516;-75
2022/12/25 01:51:46;;;;;;;8.17;7.87;;;12.40;43.70;;;;;;5031115;28;20400;-75
2022/12/25 01:54:19;;;;;;;8.67;8.37;;;12.40;43.20;;;;;;5013288;28;20945;-75
2022/12/25 01:56:46;;;;;;;9.00;8.50;;;12.40;43.10;;;;;;5031277;28;20763;-75
2022/12/25 01:59:16;;;;;;;9.13;8.73;;;12.50;42.70;;;;;;5030810;28;20765;-75
2022/12/25 02:01:42;;;;;;;9.30;9.00;;;12.50;42.50;;;;;;5030703;28;20913;-74
2022/12/25 02:04:15;;;;;;;10.03;9.63;;;12.60;42.40;;;;;;5030629;28;20465;-75
2022/12/25 02:06:41;;;;;;;10.43;9.90;;;12.60;42.10;;;;;;5031077;28;20435;-75
2022/12/25 02:09:06;;;;;;;11.03;10.53;;;12.60;43.20;;;;;;5030615;28;20969;-75
2022/12/25 02:14:16;;;;;;;11.03;10.53;;;12.50;42.80;;;;;;5030533;28;20272;-75
2022/12/25 02:16:45;;;;;;;11.70;10.87;;;12.60;43.80;;;;;;5030146;28;20909;-75
2022/12/25 02:19:47;;;;;;;11.60;10.73;;;12.40;43.70;;;;;;5030979;28;20203;-75
2022/12/25 02:22:27;;;;;;;10.77;10.27;;;12.50;43.90;;;;;;5029995;28;20407;-76
2022/12/25 02:25:18;;;;;;;10.83;10.27;;;12.50;43.80;;;;;;5030106;28;20399;-76
2022/12/25 02:28:20;;;;;;;10.20;9.70;;;12.50;43.80;;;;;;5030715;28;20402;-76
2022/12/25 02:30:52;;;;;;;10.90;9.90;;;12.40;43.70;;;;;;5029933;28;20467;-75
2022/12/25 02:36:19;;;;;;;10.07;9.67;;;12.40;44.20;;;;;;5031063;28;21013;-74
2022/12/25 02:41:37;;;;;;;10.10;9.63;;;12.50;43.80;;;;;;5030541;28;20768;-75
2022/12/25 03:06:43;;;;;;;11.13;10.63;;;12.10;45.10;;;;;;5029835;28;20487;-75
2022/12/25 03:12:04;;;;;;;10.27;9.87;;;12.10;44.60;;;;;;5029435;28;20399;-75
2022/12/25 03:17:13;;;;;;;10.77;10.17;;;12.30;44.30;;;;;;5029872;28;20533;-75
2022/12/25 03:28:00;;;;;;;9.70;9.30;;;12.60;43.20;;;;;;5029645;28;20450;-75
2022/12/25 03:35:21;;;;;;;10.43;10.03;;;12.40;43.70;;;;;;5029374;28;20403;-75
2022/12/25 03:36:42;;;;;;;10.40;9.87;;;12.40;44.20;;;;;;5029513;28;20474;-75
2022/12/25 04:37:39;;;;;;;10.90;10.40;;;12.20;43.60;;;;;;5008959;28;20463;-75
2022/12/25 04:40:05;;;;;;;9.70;9.40;;;12.30;43.70;;;;;;5008782;28;20436;-75
2022/12/25 04:42:31;;;;;;;9.77;9.37;;;12.00;42.90;;;;;;5010763;28;20257;-75
2022/12/25 04:44:56;;;;;;;9.10;8.70;;;11.90;44.10;;;;;;4994447;28;20528;-75
2022/12/25 04:47:22;;;;;;;9.00;8.70;;;11.80;43.80;;;;;;5022158;28;20256;-76
2022/12/25 04:49:47;;;;;;;9.17;8.77;;;11.80;43.60;;;;;;5005715;28;20291;-75
2022/12/25 04:52:13;;;;;;;9.53;9.13;;;11.70;44.70;;;;;;5026575;28;20169;-75
2022/12/25 04:54:39;;;;;;;9.77;9.27;;;11.70;44.70;;;;;;5012352;28;20180;-76
2022/12/25 04:57:04;;;;;;;10.23;9.83;;;11.80;44.30;;;;;;5031083;28;20177;-76
2022/12/25 04:59:30;;;;;;;10.23;9.73;;;11.70;43.10;;;;;;5031987;28;20196;-76
2022/12/25 05:01:55;;;;;;;8.83;8.43;;;11.70;44.00;;;;;;5015581;28;20698;-75
2022/12/25 05:04:21;;;;;;;9.73;9.43;;;11.80;43.70;;;;;;5016892;28;20274;-76
2022/12/25 05:06:46;;;;;;;10.03;9.73;;;12.00;43.40;;;;;;5035646;28;20255;-75
2022/12/25 05:09:12;;;;;;;9.00;8.70;;;12.00;43.40;;;;;;5035954;28;20276;-74
2022/12/25 05:11:37;;;;;;;10.77;10.00;;;12.00;43.40;;;;;;5035400;28;20180;-74
2022/12/25 05:14:03;;;;;;;9.30;9.00;;;12.10;43.50;;;;;;5036159;28;20172;-75
2022/12/25 05:16:28;;;;;;;9.37;9.07;;;12.20;43.50;;;;;;5035631;28;20180;-75
2022/12/25 05:18:54;;;;;;;9.37;8.73;;;12.00;43.40;;;;;;5034923;28;20580;-75
2022/12/25 05:21:20;;;;;;;9.90;9.40;;;12.10;43.40;;;;;;5034865;28;20608;-75
2022/12/25 05:24:06;;;;;;;10.43;9.90;;;12.20;42.60;;;;;;5068169;22;20227;-77
2022/12/25 05:26:35;;;;;;;10.10;9.50;;;12.00;42.70;;;;;;5040168;28;20168;-76
2022/12/25 05:29:04;;;;;;;10.30;9.80;;;12.00;43.40;;;;;;5053953;28;20436;-77
2022/12/25 05:31:42;;;;;;;9.20;8.70;;;12.00;43.40;;;;;;5053455;28;20434;-77
2022/12/25 05:34:15;;;;;;;9.87;9.47;;;12.10;43.40;;;;;;5054075;28;20520;-77
2022/12/25 05:39:52;;;;;;;9.57;9.17;;;12.10;43.40;;;;;;5054234;28;20414;-77
2022/12/25 05:42:25;;;;;;;10.07;9.67;;;12.20;43.30;;;;;;5055234;28;20410;-77
2022/12/25 05:44:51;;;;;;;9.23;8.93;;;12.30;43.10;;;;;;5039168;28;20203;-77
2022/12/25 05:47:16;;;;;;;10.20;9.77;;;12.40;42.50;;;;;;5054988;28;20410;-77
2022/12/25 05:49:51;;;;;;;9.40;9.00;;;12.30;42.70;;;;;;5055929;28;20203;-77
2022/12/25 05:52:17;;;;;;;10.17;9.77;;;12.40;42.30;;;;;;5056014;28;20172;-78
2022/12/25 05:54:43;;;;;;;9.57;9.17;;;12.30;42.50;;;;;;5055756;28;20426;-77
2022/12/25 05:57:08;;;;;;;11.00;10.40;;;12.10;42.50;;;;;;5054949;28;20168;-77
2022/12/25 05:59:34;;;;;;;10.10;9.70;;;11.80;43.20;;;;;;5055077;28;20168;-76
2022/12/25 06:01:59;;;;;;;10.37;9.67;;;11.70;43.30;;;;;;5055009;28;20172;-78
2022/12/25 06:04:25;;;;;;;10.00;9.50;;;11.70;44.60;;;;;;5055800;28;20196;-76
2022/12/25 06:06:52;;;;;;;9.30;8.90;;;11.90;44.20;;;;;;5052769;28;20255;-76
2022/12/25 06:09:18;;;;;;;9.80;9.50;;;11.90;43.30;;;;;;5035634;28;20196;-76
2022/12/25 06:11:44;;;;;;;10.17;9.67;;;12.00;44.00;;;;;;5053728;28;20403;-76
2022/12/25 06:14:11;;;;;;;10.10;9.40;;;12.10;43.50;;;;;;5053629;28;20422;-76
2022/12/25 06:16:37;;;;;;;11.93;10.97;;;12.30;43.60;;;;;;5036096;28;20950;-77
2022/12/25 06:19:02;;;;;;;10.33;9.53;;;12.30;42.80;;;;;;5053730;28;20447;-76
2022/12/25 06:21:28;;;;;;;9.87;9.47;;;12.40;42.70;;;;;;5035731;28;20169;-76
2022/12/25 06:23:53;;;;;;;9.47;9.07;;;12.50;43.00;;;;;;5053322;28;20236;-76
2022/12/25 06:26:19;;;;;;;9.80;9.40;;;12.50;41.80;;;;;;5053368;28;20595;-77
2022/12/25 06:28:45;;;;;;;10.30;9.80;;;12.60;41.00;;;;;;5053515;28;20251;-77
2022/12/25 06:31:14;;;;;;;9.90;9.43;;;12.70;40.70;;;;;;5053435;28;20206;-77
2022/12/25 06:33:39;;;;;;;8.70;8.40;;;12.70;40.30;;;;;;5053042;28;20463;-77
2022/12/25 06:36:19;;;;;;;9.70;9.40;;;12.80;40.20;;;;;;5053718;28;20497;-76
2022/12/25 06:38:45;;;;;;;10.27;9.67;;;12.80;40.10;;;;;;5054217;28;20514;-77
2022/12/25 06:41:13;;;;;;;10.90;10.30;;;12.80;40.00;;;;;;5053809;28;20411;-77
2022/12/25 06:43:39;;;;;;;9.57;9.27;;;12.80;40.70;;;;;;5052537;22;20306;-51
2022/12/25 06:46:08;;;;;;;9.77;9.27;;;12.80;40.20;;;;;;5055187;28;20501;-48
2022/12/25 06:48:35;;;;;;;9.53;9.13;;;12.80;39.70;;;;;;5055276;28;20171;-49
2022/12/25 06:51:01;;;;;;;9.43;9.13;;;12.90;39.30;;;;;;5054669;28;20445;-52
2022/12/25 06:53:27;;;;;;;9.00;8.70;;;12.90;39.70;;;;;;5055262;28;20406;-51
2022/12/25 06:55:53;;;;;;;10.00;9.50;;;12.90;39.70;;;;;;5059358;28;20520;-51
2022/12/25 06:58:19;;;;;;;10.30;9.90;;;12.90;39.70;;;;;;5065713;28;20830;-50
2022/12/25 07:00:44;;;;;;;9.83;9.33;;;12.90;39.70;;;;;;5068054;28;20697;-49
2022/12/25 07:03:20;;;;;;;9.30;8.97;;;12.90;39.80;;;;;;5054314;28;20183;-53
2022/12/25 07:05:46;;;;;;;8.83;8.53;;;12.90;39.50;;;;;;5070752;28;20877;-52
2022/12/25 07:08:12;;;;;;;9.47;9.10;;;12.90;39.30;;;;;;5060070;28;20516;-53
2022/12/25 07:10:37;;;;;;;9.60;9.30;;;13.00;38.80;;;;;;5065029;28;20568;-54
2022/12/25 07:13:03;;;;;;;8.93;8.63;;;12.90;39.10;;;;;;5056923;28;20401;-54
2022/12/25 07:15:29;;;;;;;9.07;8.77;;;12.70;39.80;;;;;;5068408;28;20190;-54
2022/12/25 07:17:54;;;;;;;9.30;9.00;;;12.70;39.70;;;;;;5064163;28;20210;-55
2022/12/25 07:20:20;;;;;;;9.10;8.73;;;12.70;40.40;;;;;;5064032;28;20179;-57
2022/12/25 07:22:47;;;;;;;8.77;8.47;;;12.70;40.40;;;;;;5063551;28;20613;-54
2022/12/25 07:25:12;;;;;;;9.27;8.97;;;12.80;40.80;;;;;;5055992;28;20437;-55
2022/12/25 07:27:38;;;;;;;10.47;9.60;;;12.70;39.70;;;;;;5047814;28;20179;-54
2022/12/25 07:30:04;;;;;;;9.27;8.77;;;12.80;40.10;;;;;;5064354;28;20214;-55
2022/12/25 07:32:30;;;;;;;10.07;9.67;;;12.70;40.10;;;;;;5068145;28;20190;-57
2022/12/25 07:34:56;;;;;;;9.30;9.00;;;12.60;40.90;;;;;;5061481;28;20512;-51
2022/12/25 07:37:21;;;;;;;9.60;9.23;;;12.60;41.40;;;;;;5049583;28;20508;-54
2022/12/25 07:39:47;;;;;;;9.60;9.10;;;12.70;41.00;;;;;;5054388;28;20662;-54
2022/12/25 07:42:13;;;;;;;13.00;9.23;;;12.60;40.70;;;;;;5074387;28;20266;-53
2022/12/25 07:44:39;;;;;;;9.00;8.70;;;12.60;40.80;;;;;;5065827;28;20281;-50
2022/12/25 07:47:04;;;;;;;9.30;9.00;;;12.60;40.70;;;;;;5068334;28;20186;-48
2022/12/25 07:49:30;;;;;;;10.60;9.93;;;12.50;40.50;;;;;;5064792;28;20215;-49
2022/12/25 07:51:56;;;;;;;9.93;9.57;;;12.60;41.40;;;;;;5052350;28;20461;-48
2022/12/25 07:54:22;;;;;;;9.27;8.87;;;12.60;41.30;;;;;;5054684;28;20210;-50
2022/12/25 07:56:53;;;;;;;8.90;8.60;;;12.70;40.90;;;;;;5064193;28;20176;-49
2022/12/25 07:59:19;;;;;;;9.60;9.20;;;12.70;41.40;;;;;;5044317;28;20639;-48
2022/12/25 08:01:48;;;;;;;10.33;9.90;;;12.70;40.80;;;;;;5036610;28;20503;-47
2022/12/25 08:04:13;;;;;;;9.07;8.77;;;12.80;40.50;;;;;;5033561;28;20502;-48
2022/12/25 08:06:39;;;;;;;9.73;9.23;;;12.80;40.20;;;;;;5033761;28;20512;-46
2022/12/25 08:09:10;;;;;;;9.50;9.10;;;12.90;40.10;;;;;;5034013;28;20215;-51
2022/12/25 08:11:37;;;;;;;9.10;8.80;;;12.90;39.60;;;;;;5033299;28;20190;-50
2022/12/25 08:14:06;;;;;;;8.67;8.27;;;12.90;39.60;;;;;;5033268;28;20417;-50
2022/12/25 08:16:32;;;;;;;9.20;8.70;;;12.90;39.70;;;;;;5033768;28;20425;-50
2022/12/25 08:18:58;;;;;;;9.00;8.67;;;12.90;39.60;;;;;;5033183;28;20419;-51
2022/12/25 08:21:23;;;;;;;9.70;9.30;;;12.80;39.90;;;;;;5034509;28;20271;-50
2022/12/25 08:23:49;;;;;;;9.10;8.70;;;12.60;40.90;;;;;;5062308;28;20190;-47
2022/12/25 08:26:18;;;;;;;8.47;8.17;;;12.40;42.00;;;;;;5061884;28;20609;-59
2022/12/25 08:28:44;;;;;;;9.00;8.70;;;12.20;42.80;;;;;;5076573;28;20194;-53
2022/12/25 08:31:14;;;;;;;9.50;9.20;;;12.00;43.40;;;;;;5048025;28;20466;-54
2022/12/25 08:33:40;;;;;;;8.70;8.40;;;12.00;43.80;;;;;;5061479;28;20758;-53
2022/12/25 08:36:08;;;;;;;8.83;8.53;;;11.80;44.40;;;;;;5072578;28;20425;-52
2022/12/25 08:38:34;;;;;;;9.30;9.00;;;11.80;44.50;;;;;;5060479;28;20478;-49
2022/12/25 08:41:00;;;;;;;9.33;8.80;;;11.80;44.50;;;;;;5070568;28;20416;-54
2022/12/25 08:43:25;;;;;;;9.67;9.17;;;12.00;44.00;;;;;;5071543;28;20827;-51
2022/12/25 08:45:51;;;;;;;8.40;8.10;;;12.00;43.40;;;;;;5071740;28;20635;-52
2022/12/25 08:48:17;;;;;;;9.70;9.30;;;12.10;43.60;;;;;;5072074;28;20637;-49
2022/12/25 08:50:50;;;;;;;9.67;9.27;;;12.20;43.50;;;;;;5071185;28;20209;-51
2022/12/25 08:53:16;;;;;;;9.60;8.90;;;12.20;43.50;;;;;;5070966;28;20502;-52
2022/12/25 08:55:42;;;;;;;9.43;9.10;;;12.20;43.50;;;;;;5072844;28;20503;-49
2022/12/25 08:58:07;;;;;;;9.23;8.93;;;12.30;43.60;;;;;;5073209;28;20575;-52
2022/12/25 09:00:33;;;;;;;8.70;8.40;;;12.30;42.60;;;;;;5072568;28;20182;-49
2022/12/25 09:02:59;;;;;;;10.80;10.00;;;12.40;43.20;;;;;;5091238;28;20175;-50
2022/12/25 09:05:24;;;;;;;11.10;10.57;;;12.60;42.90;;;;;;5072893;28;20266;-53
2022/12/25 09:07:50;;;;;;;9.90;9.40;;;12.70;42.20;;;;;;5072986;28;20179;-52
2022/12/25 09:10:15;;;;;;;10.70;10.10;;;12.90;41.50;;;;;;5072687;28;20210;-50
2022/12/25 09:12:41;;;;;;;11.70;11.00;;;12.90;41.10;;;;;;5072907;28;20182;-51
2022/12/25 09:15:08;;;;;;;10.17;9.63;;;12.90;40.80;;;;;;5072398;28;20270;-54
2022/12/25 09:17:33;;;;;;;9.87;9.47;;;13.00;40.90;;;;;;5072279;28;20175;-52
2022/12/25 09:19:59;;;;;;;8.50;8.20;;;13.00;40.50;;;;;;5072572;28;20470;-52
2022/12/25 09:22:24;;;;;;;8.67;8.37;;;13.00;40.90;;;;;;5071896;28;20178;-52
2022/12/25 09:24:50;;;;;;;9.93;9.00;;;13.00;40.90;;;;;;5072071;28;20214;-53
2022/12/25 09:27:16;;;;;;;9.43;8.93;;;13.00;40.80;;;;;;5072008;28;20186;-50
2022/12/25 09:29:41;;;;;;;10.00;9.57;;;13.00;40.60;;;;;;5072378;28;20233;-52
2022/12/25 09:32:07;;;;;;;9.10;8.60;;;13.10;40.50;;;;;;5071854;28;20276;-51
2022/12/25 09:34:34;;;;;;;9.97;9.57;;;13.10;40.50;;;;;;5071483;28;20534;-52
2022/12/25 09:37:00;;;;;;;9.93;9.43;;;13.10;40.40;;;;;;5071085;28;20411;-49
2022/12/25 09:39:25;;;;;;;9.67;9.17;;;13.10;40.50;;;;;;5071931;28;20433;-51
2022/12/25 09:41:55;;;;;;;9.00;8.70;;;13.10;40.30;;;;;;5075229;28;20934;-50
2022/12/25 09:44:28;;;;;;;10.10;9.60;;;13.10;40.50;;;;;;5075120;28;20254;-52
2022/12/25 09:47:05;;;;;;;10.67;10.27;;;13.00;40.50;;;;;;5075492;28;20420;-52
2022/12/25 09:49:54;;;;;;;9.77;9.40;;;13.00;40.80;;;;;;5074779;28;20459;-53
2022/12/25 09:52:35;;;;;;;9.90;9.50;;;13.10;40.60;;;;;;5074676;28;20477;-51
2022/12/25 09:55:12;;;;;;;9.77;9.37;;;13.10;40.70;;;;;;5074810;28;20404;-48
2022/12/25 09:57:38;;;;;;;8.80;8.50;;;13.10;40.90;;;;;;5059909;28;20571;-50
2022/12/25 10:00:14;;;;;;;9.20;8.90;;;13.10;41.10;;;;;;5058937;28;20497;-53
2022/12/25 10:02:42;;;;;;;9.33;9.00;;;13.20;40.70;;;;;;5065621;28;20434;-56
2022/12/25 10:05:37;;;;;;;9.50;9.20;;;13.10;41.70;;;;;;5061640;28;20928;-55
2022/12/25 10:08:09;;;;;;;9.20;8.80;;;13.10;42.00;;;;;;5064113;28;20492;-54
2022/12/25 10:10:56;;;;;;;9.70;9.30;;;13.20;41.80;;;;;;5067640;28;20495;-55
2022/12/25 10:13:56;;;;;;;9.33;8.83;;;13.20;41.50;;;;;;5060425;28;20473;-54
2022/12/25 10:16:27;;;;;;;9.57;9.17;;;13.20;41.60;;;;;;5067065;28;20418;-56
2022/12/25 10:18:56;;;;;;;9.97;9.47;;;13.30;41.40;;;;;;5071681;28;20509;-55
2022/12/25 10:21:22;;;;;;;9.53;9.13;;;13.40;41.20;;;;;;5066109;28;20908;-57
2022/12/25 10:24:01;;;;;;;11.03;10.43;;;13.40;41.20;;;;;;5066526;28;20421;-54
2022/12/25 10:26:31;;;;;;;10.57;10.07;;;13.40;40.80;;;;;;5062547;28;20429;-55
2022/12/25 10:29:18;;;;;;;9.93;9.53;;;13.40;41.00;;;;;;5067287;28;20427;-57
2022/12/25 10:31:46;;;;;;;10.10;9.63;;;13.40;40.60;;;;;;5052514;28;20422;-56
2022/12/25 10:34:13;;;;;;;10.30;9.80;;;13.50;40.50;;;;;;5072209;28;20897;-55
2022/12/25 10:36:40;;;;;;;10.40;9.97;;;13.50;40.80;;;;;;5055507;28;20417;-56
2022/12/25 10:39:05;;;;;;;10.53;10.03;;;13.50;40.50;;;;;;5052673;28;20420;-55
2022/12/25 10:41:49;;;;;;;11.03;10.37;;;13.50;40.80;;;;;;5043717;28;20403;-55
2022/12/25 10:44:23;;;;;;;10.23;9.80;;;13.60;40.40;;;;;;5044768;28;20630;-56
2022/12/25 10:46:54;;;;;;;10.40;9.70;;;13.60;40.70;;;;;;5049760;28;20422;-57
2022/12/25 10:49:23;;;;;;;9.67;9.20;;;13.70;40.60;;;;;;5054636;28;20460;-56
2022/12/25 10:51:49;;;;;;;9.53;9.17;;;13.70;40.10;;;;;;5053908;28;20774;-60
2022/12/25 10:54:34;;;;;;;10.33;9.83;;;13.80;39.70;;;;;;5054412;28;20432;-53
2022/12/25 10:57:09;;;;;;;9.70;9.30;;;13.90;39.60;;;;;;5045539;28;20417;-52
2022/12/25 10:59:42;;;;;;;9.53;9.03;;;13.90;39.90;;;;;;5053650;28;20892;-52
2022/12/25 11:02:25;;;;;;;10.00;9.50;;;13.90;40.30;;;;;;5054843;28;20422;-50
2022/12/25 11:05:00;;;;;;;8.87;8.47;;;13.90;40.90;;;;;;5055518;28;20417;-49
2022/12/25 11:07:26;;;;;;;8.93;8.50;;;13.90;41.10;;;;;;5055473;28;20427;-59
2022/12/25 11:09:54;;;;;;;9.43;8.93;;;13.90;40.80;;;;;;5049159;28;20548;-51
2022/12/25 11:12:35;;;;;;;9.60;9.20;;;14.00;41.30;;;;;;5049412;28;20410;-51
2022/12/25 11:15:26;;;;;;;8.23;7.90;;;14.00;41.20;;;;;;5055572;28;20424;-48
2022/12/25 11:17:51;;;;;;;8.20;7.90;;;13.90;40.80;;;;;;5079925;28;20434;-47
2022/12/25 11:20:19;;;;;;;7.40;7.10;;;13.80;41.20;;;;;;5055415;28;20491;-49
2022/12/25 11:22:46;;;;;;;7.33;7.07;;;13.80;41.40;;;;;;5064083;28;20191;-49
2022/12/25 11:25:19;;;;;;;8.03;7.73;;;13.80;41.50;;;;;;5033435;28;20472;-58
2022/12/25 11:28:02;;;;;;;8.90;8.50;;;13.80;41.50;;;;;;5034808;28;21002;-57
2022/12/25 11:30:29;;;;;;;6.40;6.20;;;13.70;42.00;;;;;;5034599;28;20805;-56
2022/12/25 11:33:06;;;;;;;7.37;7.10;;;13.70;41.90;;;;;;5034749;28;20784;-55
2022/12/25 11:35:44;;;;;;;7.13;6.80;;;13.70;42.50;;;;;;5052831;28;20415;-57
2022/12/25 11:38:10;;;;;;;7.47;7.07;;;13.70;42.70;;;;;;5034563;28;20414;-58
2022/12/25 11:40:43;;;;;;;7.43;7.17;;;13.70;42.30;;;;;;5034701;28;20434;-58
2022/12/25 11:43:27;;;;;;;7.37;6.97;;;13.70;42.20;;;;;;5052176;28;20179;-57
2022/12/25 11:45:59;;;;;;;7.00;6.70;;;13.70;42.30;;;;;;5034601;28;20974;-57
2022/12/25 11:48:30;;;;;;;7.13;6.87;;;13.80;42.30;;;;;;5034309;28;20473;-58
2022/12/25 11:51:01;;;;;;;7.00;6.80;;;13.90;42.10;;;;;;5034444;28;20466;-56
2022/12/25 11:53:40;;;;;;;8.00;7.70;;;13.90;42.00;;;;;;5034609;28;20464;-57
2022/12/25 11:56:09;;;;;;;7.70;7.27;;;13.90;42.30;;;;;;5034315;28;20513;-58
2022/12/25 11:58:40;;;;;;;8.23;7.63;;;14.00;42.00;;;;;;5034392;28;20438;-58
2022/12/25 12:01:26;;;;;;;6.90;6.70;;;14.00;41.70;;;;;;5034502;28;20783;-57
2022/12/25 12:03:53;;;;;;;8.03;7.73;;;14.10;41.60;;;;;;5033262;28;20410;-58
2022/12/25 12:06:47;;;;;;;7.87;7.37;;;14.10;41.30;;;;;;5034404;28;20426;-57
2022/12/25 12:09:30;;;;;;;7.67;7.37;;;14.20;41.20;;;;;;5031131;28;20510;-57
2022/12/25 12:12:17;;;;;;;8.20;7.80;;;14.20;41.40;;;;;;5034033;28;20414;-58
2022/12/25 12:14:56;;;;;;;7.30;7.10;;;14.30;41.10;;;;;;5033894;28;20433;-57
2022/12/25 12:17:21;;;;;;;7.60;7.30;;;14.40;40.80;;;;;;5034035;28;20461;-57
2022/12/25 12:19:47;;;;;;;7.60;7.30;;;14.40;40.50;;;;;;5034085;28;20462;-56
2022/12/25 12:22:24;;;;;;;8.10;7.70;;;14.50;40.20;;;;;;5033893;28;20234;-58
2022/12/25 12:24:58;;;;;;;7.30;7.10;;;14.60;40.00;;;;;;5033779;28;20179;-54
2022/12/25 12:27:38;;;;;;;7.50;7.20;;;14.60;40.00;;;;;;5034100;28;20821;-57
2022/12/25 12:30:16;;;;;;;7.70;7.40;;;14.60;39.40;;;;;;5033622;28;20470;-57
2022/12/25 12:32:50;;;;;;;8.03;7.67;;;14.70;39.60;;;;;;5033546;28;20513;-57
2022/12/25 12:35:22;;;;;;;8.50;8.10;;;14.70;39.50;;;;;;5034071;28;20508;-57
2022/12/25 12:37:59;;;;;;;7.80;7.50;;;14.80;39.30;;;;;;5033650;28;20468;-58
2022/12/25 12:40:53;;;;;;;7.50;7.20;;;14.80;39.10;;;;;;5033716;28;20417;-58
2022/12/25 12:43:39;;;;;;;8.47;8.17;;;14.80;39.70;;;;;;5030301;28;20415;-58
2022/12/25 12:46:14;;;;;;;9.43;8.60;;;14.80;39.90;;;;;;5033527;28;20898;-51
2022/12/25 12:48:43;;;;;;;7.23;7.03;;;14.80;40.30;;;;;;5034074;28;20418;-49
2022/12/25 12:51:11;;;;;;;8.43;8.07;;;14.80;40.00;;;;;;5033710;28;20470;-51
2022/12/25 12:53:39;;;;;;;8.37;7.90;;;14.90;39.30;;;;;;5034049;28;20832;-63
2022/12/25 12:56:17;;;;;;;8.00;7.70;;;14.90;39.10;;;;;;5059222;28;20437;-49
2022/12/25 12:58:49;;;;;;;8.60;8.20;;;15.00;38.90;;;;;;5061876;28;20452;-60
2022/12/25 13:01:26;;;;;;;7.60;7.30;;;15.00;39.70;;;;;;5046439;28;20924;-52
2022/12/25 13:04:19;;;;;;;8.37;8.00;;;15.00;38.50;;;;;;5045999;28;20425;-51
2022/12/25 13:07:06;;;;;;;8.33;8.00;;;15.10;37.80;;;;;;5047204;28;20486;-52
2022/12/25 13:10:10;;;;;;;7.93;7.63;;;15.10;38.00;;;;;;5061013;28;20454;-60
2022/12/25 13:12:37;;;;;;;7.23;6.83;;;15.20;37.40;;;;;;5049246;28;20433;-50
2022/12/25 13:15:03;;;;;;;7.30;7.10;;;15.20;37.20;;;;;;5049552;28;20407;-47
2022/12/25 13:17:28;;;;;;;8.27;7.77;;;15.30;37.00;;;;;;5050573;28;20458;-50
2022/12/25 13:19:57;;;;;;;7.60;7.30;;;15.30;37.00;;;;;;5046196;28;20406;-50
2022/12/25 13:22:32;;;;;;;7.10;6.80;;;15.30;36.50;;;;;;5046116;28;20175;-53
2022/12/25 13:25:00;;;;;;;7.47;7.17;;;15.40;36.60;;;;;;5064239;28;20414;-52
2022/12/25 13:27:29;;;;;;;7.70;7.40;;;15.40;37.50;;;;;;5045433;28;20421;-52
2022/12/25 13:29:56;;;;;;;7.27;6.97;;;15.40;37.90;;;;;;5047425;28;20457;-52
2022/12/25 13:32:28;;;;;;;6.60;6.40;;;15.40;38.10;;;;;;5046773;28;20758;-46
2022/12/25 13:34:54;;;;;;;7.37;7.07;;;15.40;37.20;;;;;;5047346;28;20449;-47
2022/12/25 13:37:24;;;;;;;7.60;7.30;;;15.40;37.60;;;;;;5046775;28;20407;-46
2022/12/25 13:39:58;;;;;;;7.00;6.80;;;15.30;38.00;;;;;;5062415;28;20414;-53
2022/12/25 13:42:30;;;;;;;7.60;7.30;;;15.30;37.00;;;;;;5045918;28;20831;-46
2022/12/25 13:45:24;;;;;;;6.53;6.13;;;15.40;36.20;;;;;;5053274;28;20441;-47
2022/12/25 13:47:50;;;;;;;6.83;6.53;;;15.50;36.30;;;;;;5052082;28;20430;-51
2022/12/25 13:50:25;;;;;;;7.63;7.33;;;15.50;36.40;;;;;;5056611;28;20475;-48
2022/12/25 13:52:52;;;;;;;7.30;6.80;;;15.50;36.30;;;;;;5057689;28;20425;-47
2022/12/25 13:55:27;;;;;;;7.90;7.40;;;15.50;36.80;;;;;;5052787;28;20410;-48
2022/12/25 13:57:55;;;;;;;7.07;6.77;;;15.40;36.90;;;;;;5053413;28;20497;-52
2022/12/25 14:00:35;;;;;;;7.07;6.77;;;15.40;37.20;;;;;;5045382;28;20419;-52
2022/12/25 14:03:08;;;;;;;7.27;6.97;;;15.40;37.60;;;;;;5044474;28;20422;-46
2022/12/25 14:05:36;;;;;;;7.57;7.17;;;15.40;37.70;;;;;;5045299;28;20460;-50
2022/12/25 14:08:11;;;;;;;7.33;7.00;;;15.40;37.80;;;;;;5047097;28;20913;-50
2022/12/25 14:10:39;;;;;;;7.30;6.90;;;15.40;37.50;;;;;;5045623;28;20461;-50
2022/12/25 14:13:10;;;;;;;7.20;6.90;;;15.40;37.70;;;;;;5041869;28;20432;-49
2022/12/25 14:15:38;;;;;;;7.10;6.80;;;15.40;38.00;;;;;;5037224;28;20414;-50
2022/12/25 14:18:05;;;;;;;7.83;7.53;;;15.40;37.60;;;;;;5036694;28;20929;-52
2022/12/25 14:20:52;;;;;;;7.37;7.07;;;15.40;37.70;;;;;;5037780;28;20426;-54
2022/12/25 14:23:17;;;;;;;7.90;7.60;;;15.30;37.70;;;;;;5071458;28;20424;-50
2022/12/25 14:25:45;;;;;;;7.70;7.33;;;15.30;38.20;;;;;;5067661;28;20912;-60
2022/12/25 14:28:32;;;;;;;7.70;7.40;;;15.30;38.20;;;;;;5075866;28;20182;-61
2022/12/25 14:31:00;;;;;;;7.53;7.23;;;15.40;38.30;;;;;;5076063;28;20471;-60
2022/12/25 14:33:28;;;;;;;8.40;8.10;;;15.40;38.30;;;;;;5076266;28;20824;-59
2022/12/25 14:35:54;;;;;;;8.40;8.00;;;15.40;38.00;;;;;;5076169;28;20900;-60
2022/12/25 14:38:28;;;;;;;8.13;7.73;;;15.30;38.10;;;;;;5076326;28;20424;-60
2022/12/25 14:41:04;;;;;;;8.07;7.77;;;15.40;38.30;;;;;;5064386;28;20426;-60
2022/12/25 14:43:31;;;;;;;8.00;7.60;;;15.30;38.50;;;;;;5048420;28;20436;-61
2022/12/25 14:46:02;;;;;;;8.23;7.93;;;15.30;38.10;;;;;;5044724;28;20788;-61
2022/12/25 14:48:30;;;;;;;9.00;8.67;;;15.30;38.10;;;;;;5045841;28;20413;-61
2022/12/25 14:51:16;;;;;;;7.53;7.23;;;15.30;38.20;;;;;;5045100;28;20485;-60